Time;durP1;ratioP1;P1;durP2;ratioP2;P2;SDS_P1;SDS_P2;PMS_P1;PMS_P2;Temp;Humidity;BMP_temperature;BMP_pressure;BME280_temperature;BME280_humidity;BME280_pressure;Samples;Min_cycle;Max_cycle;Signal;HPM_P1;HPM_P2
2023/08/28 00:01:29;;;;;;;6.72;1.50;;;;;;;13.04;100.00;96928.25;4983449;28;20043;-63
2023/08/28 00:03:56;;;;;;;4.25;1.55;;;;;;;13.05;100.00;96919.81;4978885;28;20115;-62
2023/08/28 00:06:22;;;;;;;7.32;1.60;;;;;;;12.99;100.00;96912.78;4968170;28;20047;-62
2023/08/28 00:08:49;;;;;;;2.95;1.50;;;;;;;12.82;100.00;96913.13;4990558;28;20057;-62
2023/08/28 00:11:15;;;;;;;9.52;1.80;;;;;;;12.60;100.00;96925.97;4990578;28;20034;-62
2023/08/28 00:13:42;;;;;;;4.60;1.60;;;;;;;12.58;100.00;96928.16;4973659;28;20088;-62
2023/08/28 00:16:08;;;;;;;3.90;1.35;;;;;;;12.61;100.00;96926.78;4966670;28;20502;-62
2023/08/28 00:18:35;;;;;;;4.78;1.70;;;;;;;12.46;100.00;96905.94;4983307;28;20224;-62
2023/08/28 00:21:03;;;;;;;4.47;1.50;;;;;;;12.21;100.00;96921.16;4980736;28;20039;-62
2023/08/28 00:23:32;;;;;;;8.27;2.53;;;;;;;12.24;100.00;96934.19;4983637;28;20039;-63
2023/08/28 00:26:00;;;;;;;4.72;2.03;;;;;;;12.19;100.00;96964.88;4997134;28;20082;-62
2023/08/28 00:28:26;;;;;;;4.85;1.85;;;;;;;12.21;100.00;96967.31;4978768;28;20084;-62
2023/08/28 00:30:53;;;;;;;4.47;1.80;;;;;;;12.25;100.00;96968.41;4988320;28;20049;-63
2023/08/28 00:33:19;;;;;;;3.95;1.75;;;;;;;12.30;100.00;96927.66;4984919;28;20058;-63
2023/08/28 00:35:46;;;;;;;4.47;1.92;;;;;;;12.38;100.00;96926.28;4980111;28;20090;-63
2023/08/28 00:38:13;;;;;;;5.25;2.00;;;;;;;12.27;100.00;96933.63;4998790;28;20107;-62
2023/08/28 00:40:40;;;;;;;5.97;2.13;;;;;;;12.24;100.00;96945.06;5022495;28;20066;-63
2023/08/28 00:43:09;;;;;;;9.05;2.95;;;;;;;12.30;100.00;96945.84;5005505;28;20047;-62
2023/08/28 00:45:42;;;;;;;3.22;1.73;;;;;;;12.25;100.00;96951.28;4987663;28;20053;-62
2023/08/28 00:48:15;;;;;;;5.07;1.85;;;;;;;12.24;100.00;96958.63;4968608;28;20478;-62
2023/08/28 00:50:43;;;;;;;2.33;1.55;;;;;;;12.29;100.00;96969.47;4998549;28;20092;-62
2023/08/28 00:53:11;;;;;;;3.17;1.70;;;;;;;12.29;100.00;96955.91;4981681;28;20581;-62
2023/08/28 00:55:40;;;;;;;4.00;1.60;;;;;;;12.33;100.00;96948.03;4975891;28;20095;-63
2023/08/28 00:58:06;;;;;;;7.82;1.60;;;;;;;12.45;100.00;96936.84;4969264;28;20046;-62
2023/08/28 01:00:33;;;;;;;5.30;1.55;;;;;;;12.48;100.00;96936.31;4983008;28;20123;-62
2023/08/28 01:03:01;;;;;;;2.03;1.50;;;;;;;12.54;100.00;96929.81;4969963;28;20062;-62
2023/08/28 01:05:36;;;;;;;2.38;1.20;;;;;;;12.65;100.00;96917.00;4971798;28;20062;-63
2023/08/28 01:08:09;;;;;;;4.15;1.40;;;;;;;12.63;100.00;96902.06;4978632;28;20065;-62
2023/08/28 01:10:44;;;;;;;4.25;1.70;;;;;;;12.68;100.00;96907.47;4982340;28;20488;-62
2023/08/28 01:13:31;;;;;;;3.67;1.55;;;;;;;12.63;100.00;96908.31;4970204;28;20038;-62
2023/08/28 01:15:59;;;;;;;3.88;1.40;;;;;;;12.61;100.00;96914.00;4967257;28;20050;-63
2023/08/28 01:18:26;;;;;;;4.35;1.83;;;;;;;12.59;100.00;96920.81;4968859;28;20570;-62
2023/08/28 01:20:54;;;;;;;2.40;1.40;;;;;;;12.63;100.00;96929.25;4984280;28;20525;-63
2023/08/28 01:23:31;;;;;;;2.85;1.30;;;;;;;12.63;100.00;96927.31;4969294;28;20042;-63
2023/08/28 01:25:58;;;;;;;3.88;1.38;;;;;;;12.58;100.00;96922.72;4992710;28;20050;-62
2023/08/28 01:28:28;;;;;;;2.60;1.35;;;;;;;12.53;100.00;96932.78;4964638;28;20047;-63
2023/08/28 01:30:55;;;;;;;2.85;1.30;;;;;;;12.52;100.00;96931.97;4999227;28;20046;-63
2023/08/28 01:33:21;;;;;;;3.88;1.30;;;;;;;12.53;100.00;96930.88;4966169;28;20031;-61
2023/08/28 01:35:58;;;;;;;4.63;1.70;;;;;;;12.54;100.00;96923.53;4975202;28;20039;-62
2023/08/28 01:38:34;;;;;;;2.90;1.52;;;;;;;12.52;100.00;96934.69;4964262;28;20798;-63
2023/08/28 01:41:07;;;;;;;7.55;1.35;;;;;;;12.54;100.00;96928.97;4995077;28;20046;-62
2023/08/28 01:43:38;;;;;;;4.97;1.25;;;;;;;12.49;100.00;96936.03;4960443;28;20035;-63
2023/08/28 01:46:08;;;;;;;4.05;1.48;;;;;;;12.53;100.00;96936.28;4983683;28;20049;-63
2023/08/28 01:48:35;;;;;;;3.28;1.60;;;;;;;12.51;100.00;96930.34;4977118;28;20049;-63
2023/08/28 01:51:02;;;;;;;4.97;1.70;;;;;;;12.54;100.00;96923.53;4995320;28;20072;-63
2023/08/28 01:53:29;;;;;;;5.13;1.30;;;;;;;12.54;100.00;96923.53;4984990;28;20039;-63
2023/08/28 01:56:15;;;;;;;4.03;1.83;;;;;;;12.53;100.00;96935.50;5011481;28;20050;-63
2023/08/28 01:58:49;;;;;;;4.75;1.55;;;;;;;12.49;100.00;96933.31;4971793;28;20043;-63
2023/08/28 02:01:15;;;;;;;6.90;1.55;;;;;;;12.45;100.00;96940.41;4999667;28;20074;-62
2023/08/28 02:03:43;;;;;;;3.58;1.77;;;;;;;12.44;100.00;96965.09;4962303;28;20039;-62
2023/08/28 02:06:11;;;;;;;3.92;1.30;;;;;;;12.32;100.00;96933.63;4962022;28;20129;-62
2023/08/28 02:08:37;;;;;;;4.93;1.70;;;;;;;12.28;100.00;96940.72;4970478;28;20576;-63
2023/08/28 02:11:05;;;;;;;3.22;1.50;;;;;;;12.28;100.00;96932.56;4991218;28;20043;-62
2023/08/28 02:13:33;;;;;;;3.33;1.63;;;;;;;12.23;100.00;96933.38;4960040;28;20039;-62
2023/08/28 02:16:00;;;;;;;2.85;1.45;;;;;;;12.27;100.00;96922.78;4971364;28;20125;-62
2023/08/28 02:18:27;;;;;;;6.05;1.73;;;;;;;12.21;100.00;96919.25;4965029;28;20460;-62
2023/08/28 02:20:54;;;;;;;6.35;1.60;;;;;;;12.18;100.00;96905.44;5012732;28;20051;-63
2023/08/28 02:23:21;;;;;;;3.22;1.30;;;;;;;12.18;100.00;96903.53;4966176;28;20065;-62
2023/08/28 02:25:48;;;;;;;5.78;1.77;;;;;;;12.20;100.00;96893.22;5000205;28;20038;-63
2023/08/28 02:28:18;;;;;;;2.90;1.50;;;;;;;12.20;100.00;96886.97;4953528;28;20078;-62
2023/08/28 02:30:45;;;;;;;3.72;1.45;;;;;;;12.18;100.00;96878.28;4977951;28;20054;-63
2023/08/28 02:33:12;;;;;;;5.43;1.48;;;;;;;12.18;100.00;96878.28;4973822;28;20115;-63
2023/08/28 02:35:39;;;;;;;4.38;1.50;;;;;;;12.10;100.00;96879.66;5019878;28;20116;-63
2023/08/28 02:38:08;;;;;;;4.13;1.60;;;;;;;12.05;100.00;96891.34;5004098;28;20088;-63
2023/08/28 02:40:38;;;;;;;2.70;1.48;;;;;;;12.09;100.00;96897.03;4956603;28;20137;-63
2023/08/28 02:43:06;;;;;;;2.83;1.38;;;;;;;12.13;100.00;96889.97;4994757;28;20069;-63
2023/08/28 02:45:34;;;;;;;3.95;1.25;;;;;;;12.17;100.00;96876.66;4965902;28;20042;-63
2023/08/28 02:48:03;;;;;;;9.98;1.70;;;;;;;12.16;100.00;96880.47;5001939;28;20050;-64
2023/08/28 02:50:34;;;;;;;3.03;1.50;;;;;;;12.13;100.00;96881.03;4979766;28;20051;-63
2023/08/28 02:53:02;;;;;;;6.05;1.33;;;;;;;12.21;100.00;96873.13;4982407;28;20546;-64
2023/08/28 02:55:38;;;;;;;5.82;1.63;;;;;;;12.21;100.00;96866.88;5025405;28;20059;-63
2023/08/28 02:58:05;;;;;;;5.93;1.55;;;;;;;12.20;100.00;96873.41;4983562;28;20082;-63
2023/08/28 03:00:33;;;;;;;3.85;1.27;;;;;;;12.16;100.00;96872.34;5023463;28;20036;-61
2023/08/28 03:03:00;;;;;;;3.72;1.63;;;;;;;12.20;100.00;96882.34;4987657;28;20683;-62
2023/08/28 03:05:28;;;;;;;3.35;1.40;;;;;;;12.25;100.00;96878.00;5011738;28;20040;-62
2023/08/28 03:07:54;;;;;;;4.35;1.60;;;;;;;12.28;100.00;96864.72;4994375;28;20078;-62
2023/08/28 03:10:22;;;;;;;3.78;1.10;;;;;;;12.28;100.00;96861.16;4973173;28;20047;-63
2023/08/28 03:12:49;;;;;;;4.25;1.27;;;;;;;12.23;100.00;96865.53;4975333;28;20039;-63
2023/08/28 03:15:15;;;;;;;7.30;1.70;;;;;;;12.21;100.00;96864.97;5012301;28;20435;-63
2023/08/28 03:17:42;;;;;;;2.63;1.30;;;;;;;12.23;100.00;96867.41;4995930;28;20072;-62
2023/08/28 03:20:10;;;;;;;4.25;1.25;;;;;;;12.23;100.00;96859.28;4972725;28;20041;-62
2023/08/28 03:22:36;;;;;;;4.18;1.50;;;;;;;12.23;100.00;96854.66;4964660;28;20038;-62
2023/08/28 03:25:04;;;;;;;4.15;1.20;;;;;;;12.22;100.00;96853.03;5004824;28;20735;-63
2023/08/28 03:27:31;;;;;;;6.93;1.58;;;;;;;12.22;100.00;96854.94;4994825;28;20077;-63
2023/08/28 03:29:58;;;;;;;3.22;1.45;;;;;;;12.23;100.00;96873.66;4978304;28;20087;-63
2023/08/28 03:32:24;;;;;;;3.97;1.30;;;;;;;12.18;100.00;96853.84;5025056;28;20039;-63
2023/08/28 03:34:51;;;;;;;5.15;1.50;;;;;;;12.18;100.00;96864.72;4996459;28;20050;-63
2023/08/28 03:37:18;;;;;;;7.45;1.75;;;;;;;12.11;100.00;96865.00;4959974;28;20057;-62
2023/08/28 03:39:44;;;;;;;3.03;1.25;;;;;;;12.16;100.00;96886.69;4991904;28;20144;-63
2023/08/28 03:42:11;;;;;;;2.67;1.45;;;;;;;12.17;100.00;96873.94;5007047;28;20058;-63
2023/08/28 03:44:37;;;;;;;6.10;1.38;;;;;;;12.05;100.00;96866.09;4995168;28;20038;-63
2023/08/28 03:47:04;;;;;;;8.45;1.50;;;;;;;11.83;100.00;96886.97;4961009;28;20411;-63
2023/08/28 03:49:31;;;;;;;3.42;1.58;;;;;;;11.88;100.00;96920.63;4966144;28;20043;-63
2023/08/28 03:52:00;;;;;;;6.22;2.00;;;;;;;11.89;100.00;96917.63;4997597;28;20587;-63
2023/08/28 03:54:27;;;;;;;3.67;1.42;;;;;;;11.89;100.00;96909.50;5028189;28;20732;-62
2023/08/28 03:56:54;;;;;;;5.05;2.30;;;;;;;11.99;100.00;96905.16;5025495;28;20049;-63
2023/08/28 03:59:21;;;;;;;7.78;1.90;;;;;;;12.00;100.00;96894.03;5031018;28;20067;-63
2023/08/28 04:01:48;;;;;;;5.75;1.77;;;;;;;12.01;100.00;96897.56;5023820;28;20074;-64
2023/08/28 04:04:16;;;;;;;2.60;1.50;;;;;;;12.09;100.00;96903.25;4990006;28;20046;-63
2023/08/28 04:06:43;;;;;;;4.72;1.63;;;;;;;12.14;100.00;96901.63;4999067;28;20051;-62
2023/08/28 04:09:10;;;;;;;6.90;1.50;;;;;;;12.28;100.00;96932.56;4984095;28;20560;-62
2023/08/28 04:11:36;;;;;;;4.75;1.70;;;;;;;12.16;100.00;96889.41;5030112;28;20137;-62
2023/08/28 04:14:03;;;;;;;5.25;2.03;;;;;;;12.16;100.00;96897.56;4996539;28;20064;-63
2023/08/28 04:16:29;;;;;;;3.40;1.80;;;;;;;12.05;100.00;96896.75;5022160;28;20064;-62
2023/08/28 04:18:56;;;;;;;3.10;1.65;;;;;;;12.09;100.00;96892.41;5020751;28;20038;-62
2023/08/28 04:21:22;;;;;;;4.00;1.98;;;;;;;12.01;100.00;96884.00;5010247;28;20653;-61
2023/08/28 04:23:49;;;;;;;6.05;1.92;;;;;;;12.03;100.00;96884.53;4979378;28;20502;-62
2023/08/28 04:26:15;;;;;;;5.78;1.83;;;;;;;12.10;100.00;96893.22;4997496;28;20048;-61
2023/08/28 04:28:42;;;;;;;3.75;1.80;;;;;;;12.10;100.00;96872.31;4967952;28;20126;-62
2023/08/28 04:31:09;;;;;;;5.10;1.90;;;;;;;12.05;100.00;96877.75;4998929;28;20545;-62
2023/08/28 04:33:36;;;;;;;4.40;1.50;;;;;;;12.00;100.00;96869.59;4987714;28;20602;-61
2023/08/28 04:36:03;;;;;;;4.43;1.90;;;;;;;11.96;100.00;96879.38;4978479;28;20542;-61
2023/08/28 04:38:29;;;;;;;5.55;2.22;;;;;;;11.92;100.00;96889.16;4997642;28;20041;-62
2023/08/28 04:40:56;;;;;;;3.75;1.85;;;;;;;11.94;100.00;96882.34;5003715;28;20698;-62
2023/08/28 04:43:22;;;;;;;4.40;1.70;;;;;;;11.85;100.00;96878.56;4965678;28;20034;-62
2023/08/28 04:45:49;;;;;;;5.35;1.98;;;;;;;11.84;100.00;96885.88;4992776;28;20043;-61
2023/08/28 04:48:18;;;;;;;9.77;2.50;;;;;;;11.90;100.00;96915.75;4965247;28;20042;-62
2023/08/28 04:50:45;;;;;;;5.93;2.45;;;;;;;11.94;100.00;96903.28;4975112;28;20074;-62
2023/08/28 04:53:11;;;;;;;6.38;2.90;;;;;;;11.94;100.00;96887.00;4993175;28;20078;-61
2023/08/28 04:55:39;;;;;;;7.72;2.15;;;;;;;11.96;100.00;96890.22;5006066;28;20086;-62
2023/08/28 04:58:06;;;;;;;5.53;2.13;;;;;;;12.01;100.00;96886.72;4998174;28;20070;-63
2023/08/28 05:00:33;;;;;;;5.53;2.20;;;;;;;12.04;100.00;96892.41;4999363;28;20045;-62
2023/08/28 05:03:00;;;;;;;4.38;2.30;;;;;;;12.12;100.00;96887.53;4983645;28;20078;-62
2023/08/28 05:05:26;;;;;;;4.60;1.90;;;;;;;12.01;100.00;96862.28;4994287;28;20036;-62
2023/08/28 05:07:53;;;;;;;5.88;2.25;;;;;;;12.06;100.00;96894.88;4984244;28;20046;-62
2023/08/28 05:10:19;;;;;;;3.33;1.95;;;;;;;11.95;100.00;96880.47;4974910;28;20043;-62
2023/08/28 05:12:46;;;;;;;4.05;2.03;;;;;;;11.94;100.00;96895.91;5034793;28;20035;-62
2023/08/28 05:15:13;;;;;;;6.28;2.60;;;;;;;12.05;100.00;96917.63;5011037;28;20161;-63
2023/08/28 05:17:39;;;;;;;5.13;2.70;;;;;;;12.02;100.00;96888.34;4987932;28;20071;-63
2023/08/28 05:20:06;;;;;;;4.22;2.42;;;;;;;12.18;100.00;96900.81;4987424;28;20108;-62
2023/08/28 05:22:33;;;;;;;4.95;2.30;;;;;;;12.08;100.00;96871.78;4999135;28;20072;-62
2023/08/28 05:25:01;;;;;;;7.40;2.47;;;;;;;12.06;100.00;96882.09;5013834;28;20049;-63
2023/08/28 05:27:28;;;;;;;5.75;2.85;;;;;;;12.06;100.00;96879.38;4960501;28;20031;-63
2023/08/28 05:29:54;;;;;;;5.07;2.28;;;;;;;12.11;100.00;96892.13;4980610;28;20485;-63
2023/08/28 05:32:22;;;;;;;7.68;2.70;;;;;;;12.10;100.00;96885.88;4967905;28;20077;-62
2023/08/28 05:34:49;;;;;;;7.63;2.53;;;;;;;12.11;100.00;96878.56;4983609;28;20557;-61
2023/08/28 05:37:17;;;;;;;5.30;2.70;;;;;;;12.03;100.00;96885.34;4982130;28;20068;-62
2023/08/28 05:39:44;;;;;;;5.55;3.00;;;;;;;12.15;100.00;96917.66;4961295;28;20050;-62
2023/08/28 05:42:10;;;;;;;4.55;2.20;;;;;;;12.09;100.00;96875.34;4988455;28;20058;-63
2023/08/28 05:44:37;;;;;;;5.88;2.60;;;;;;;12.09;100.00;96881.56;4980215;28;20046;-62
2023/08/28 05:47:04;;;;;;;5.45;2.42;;;;;;;12.18;100.00;96898.09;4980103;28;20504;-64
2023/08/28 05:49:30;;;;;;;4.55;2.35;;;;;;;12.08;100.00;96890.78;5001215;28;20051;-64
2023/08/28 05:51:57;;;;;;;7.13;2.78;;;;;;;12.20;100.00;96920.34;4996041;28;20066;-64
2023/08/28 05:54:24;;;;;;;5.10;2.38;;;;;;;12.21;100.00;96900.25;4999540;28;20032;-63
2023/08/28 05:56:50;;;;;;;5.97;2.72;;;;;;;12.26;100.00;96887.75;4972317;28;20047;-63
2023/08/28 05:59:17;;;;;;;5.95;2.58;;;;;;;12.30;100.00;96886.94;5011945;28;20040;-63
2023/08/28 06:01:44;;;;;;;5.07;2.33;;;;;;;12.30;100.00;96872.56;4992599;28;20859;-63
2023/08/28 06:04:12;;;;;;;5.72;2.67;;;;;;;12.37;100.00;96867.66;4961801;28;20054;-62
2023/08/28 06:06:38;;;;;;;4.60;2.70;;;;;;;12.42;100.00;96850.53;4997135;28;20123;-63
2023/08/28 06:09:06;;;;;;;5.10;2.45;;;;;;;12.39;100.00;96840.22;4952878;28;20078;-63
2023/08/28 06:11:33;;;;;;;4.40;2.30;;;;;;;12.40;100.00;96837.25;4991287;28;20054;-62
2023/08/28 06:14:04;;;;;;;5.97;2.17;;;;;;;12.46;100.00;96840.75;4984406;28;20102;-63
2023/08/28 06:16:30;;;;;;;6.72;3.25;;;;;;;12.53;100.00;96840.47;4999963;28;20122;-62
2023/08/28 06:18:57;;;;;;;7.63;3.45;;;;;;;12.56;100.00;96793.72;4991270;28;20062;-62
2023/08/28 06:21:23;;;;;;;5.05;2.78;;;;;;;12.64;100.00;96787.69;4971567;28;20066;-63
2023/08/28 06:23:50;;;;;;;7.20;2.83;;;;;;;12.72;100.00;96783.59;5008228;28;20433;-62
2023/08/28 06:26:16;;;;;;;5.28;2.35;;;;;;;12.80;100.00;96764.00;4989843;28;20057;-62
2023/08/28 06:28:43;;;;;;;7.25;2.95;;;;;;;12.86;100.00;96754.72;5001737;28;20129;-63
2023/08/28 06:31:10;;;;;;;6.10;2.80;;;;;;;12.93;100.00;96748.97;5006524;28;20044;-63
2023/08/28 06:33:36;;;;;;;5.72;2.60;;;;;;;12.97;100.00;96741.06;4978919;28;20386;-63
2023/08/28 06:36:03;;;;;;;5.55;2.50;;;;;;;13.04;100.00;96736.09;5022641;28;20129;-63
2023/08/28 06:38:30;;;;;;;3.90;2.35;;;;;;;13.14;100.00;96741.47;4988778;28;20043;-62
2023/08/28 06:40:56;;;;;;;4.00;2.42;;;;;;;13.11;100.00;96744.75;4967459;28;20054;-63
2023/08/28 06:43:23;;;;;;;4.80;2.40;;;;;;;13.22;100.00;96750.91;4964564;28;20122;-63
2023/08/28 06:45:49;;;;;;;6.43;2.70;;;;;;;13.22;100.00;96750.09;4987290;28;20059;-62
2023/08/28 06:48:16;;;;;;;4.93;2.50;;;;;;;13.24;100.00;96756.88;4989006;28;20048;-63
2023/08/28 06:50:43;;;;;;;4.75;2.60;;;;;;;13.26;100.00;96753.88;4992442;28;20069;-63
2023/08/28 06:53:09;;;;;;;5.35;2.85;;;;;;;13.37;100.00;96747.25;4980165;28;20089;-61
2023/08/28 06:55:36;;;;;;;7.25;2.80;;;;;;;13.42;100.00;96740.97;4968847;28;20654;-62
2023/08/28 06:58:03;;;;;;;3.83;2.60;;;;;;;13.53;100.00;96741.72;4990560;28;20092;-63
2023/08/28 07:00:29;;;;;;;5.55;2.50;;;;;;;13.63;100.00;96741.59;4989660;28;20039;-62
2023/08/28 07:02:57;;;;;;;4.95;2.72;;;;;;;13.65;100.00;96739.41;4989639;28;20070;-63
2023/08/28 07:05:24;;;;;;;3.75;2.55;;;;;;;13.69;100.00;96745.09;5022150;28;20049;-62
2023/08/28 07:07:51;;;;;;;5.43;2.53;;;;;;;13.68;100.00;96753.53;4971655;28;20592;-63
2023/08/28 07:10:17;;;;;;;5.18;2.28;;;;;;;13.74;100.00;96750.47;5004933;28;20046;-62
2023/08/28 07:12:44;;;;;;;5.80;2.38;;;;;;;13.83;100.00;96736.25;5011454;28;20032;-62
2023/08/28 07:15:11;;;;;;;4.22;2.30;;;;;;;13.81;100.00;96722.91;4968783;28;20042;-62
2023/08/28 07:17:37;;;;;;;5.13;2.42;;;;;;;13.85;100.00;96731.31;5003148;28;20037;-61
2023/08/28 07:20:09;;;;;;;6.75;2.30;;;;;;;13.80;100.00;96753.97;5007815;28;20123;-62
2023/08/28 07:22:36;;;;;;;4.07;2.40;;;;;;;13.86;100.00;96787.38;5002235;28;20075;-62
2023/08/28 07:25:03;;;;;;;5.82;3.15;;;;;;;13.83;100.00;96790.66;5014287;28;20625;-62
2023/08/28 07:27:29;;;;;;;7.45;2.90;;;;;;;13.88;100.00;96780.53;4979612;28;20047;-63
2023/08/28 07:29:58;;;;;;;4.22;2.30;;;;;;;13.83;100.00;96769.72;4969491;28;20046;-63
2023/08/28 07:32:24;;;;;;;5.60;2.20;;;;;;;13.89;100.00;96765.81;5025577;28;20075;-62
2023/08/28 07:34:51;;;;;;;6.57;2.30;;;;;;;13.94;100.00;96758.72;4962828;28;20042;-62
2023/08/28 07:37:18;;;;;;;3.78;2.35;;;;;;;13.95;100.00;96744.81;4983458;28;20041;-62
2023/08/28 07:39:45;;;;;;;4.65;2.30;;;;;;;13.88;100.00;96758.78;4995128;28;20039;-62
2023/08/28 07:42:11;;;;;;;5.07;1.98;;;;;;;13.85;100.00;96758.50;4976582;28;20081;-62
2023/08/28 07:44:38;;;;;;;3.30;2.10;;;;;;;13.79;100.00;96752.34;5005072;28;20038;-62
2023/08/28 07:47:05;;;;;;;4.97;2.42;;;;;;;13.86;100.00;96749.28;4991466;28;20050;-63
2023/08/28 07:49:32;;;;;;;5.60;2.42;;;;;;;13.83;100.00;96744.41;4978582;28;20044;-62
2023/08/28 07:51:58;;;;;;;5.15;2.22;;;;;;;13.89;100.00;96737.78;5003240;28;20066;-62
2023/08/28 07:54:25;;;;;;;3.75;1.90;;;;;;;13.90;100.00;96745.66;4970032;28;20046;-62
2023/08/28 07:56:51;;;;;;;4.53;2.20;;;;;;;13.94;100.00;96754.09;4986921;28;20476;-62
2023/08/28 07:59:18;;;;;;;5.32;2.30;;;;;;;14.02;100.00;96753.44;4983037;28;20581;-62
2023/08/28 08:01:44;;;;;;;4.40;2.47;;;;;;;13.98;100.00;96759.75;4992098;28;20040;-62
2023/08/28 08:04:11;;;;;;;4.55;2.22;;;;;;;14.00;100.00;96768.41;5014750;28;20049;-62
2023/08/28 08:06:38;;;;;;;3.67;2.08;;;;;;;14.00;100.00;96784.75;4974339;28;20050;-62
2023/08/28 08:09:05;;;;;;;8.10;2.53;;;;;;;14.08;100.00;96795.00;4975820;28;20073;-63
2023/08/28 08:11:34;;;;;;;7.00;2.90;;;;;;;13.96;100.00;96786.47;5020344;28;20032;-63
2023/08/28 08:14:03;;;;;;;6.40;2.67;;;;;;;14.07;100.00;96798.84;4968420;28;20070;-62
2023/08/28 08:16:30;;;;;;;5.38;2.65;;;;;;;14.16;100.00;96791.66;4968497;28;20085;-62
2023/08/28 08:18:56;;;;;;;4.85;2.33;;;;;;;14.28;100.00;96788.53;4962343;28;20046;-62
2023/08/28 08:21:23;;;;;;;5.30;3.20;;;;;;;14.35;100.00;96784.66;4982539;28;20784;-62
2023/08/28 08:23:49;;;;;;;5.50;3.00;;;;;;;14.42;100.00;96787.84;4985464;28;20046;-62
2023/08/28 08:26:16;;;;;;;6.28;2.60;;;;;;;14.40;100.00;96800.91;4989701;28;20043;-63
2023/08/28 08:28:43;;;;;;;4.85;2.33;;;;;;;14.37;100.00;96804.25;4989615;28;20042;-63
2023/08/28 08:31:09;;;;;;;4.85;2.78;;;;;;;14.23;100.00;96810.38;5014346;28;20607;-62
2023/08/28 08:33:37;;;;;;;7.57;3.10;;;;;;;14.23;100.00;96806.84;4996534;28;20051;-62
2023/08/28 08:36:05;;;;;;;5.32;3.22;;;;;;;14.11;100.00;96809.97;4966207;28;20115;-63
2023/08/28 08:38:32;;;;;;;5.15;2.88;;;;;;;14.13;100.00;96816.75;5000174;28;20047;-62
2023/08/28 08:41:00;;;;;;;4.32;2.88;;;;;;;14.24;100.00;96812.00;4980981;28;20046;-63
2023/08/28 08:43:28;;;;;;;6.53;3.60;;;;;;;14.43;100.00;96809.34;4980269;28;20043;-63
2023/08/28 08:46:04;;;;;;;5.97;3.45;;;;;;;14.45;100.00;96803.59;4982188;28;20129;-63
2023/08/28 08:48:34;;;;;;;6.10;3.45;;;;;;;14.41;100.00;96808.00;4962132;28;20104;-63
2023/08/28 08:51:06;;;;;;;5.93;3.42;;;;;;;14.44;100.00;96796.50;4997138;28;20053;-63
2023/08/28 08:53:43;;;;;;;6.60;3.78;;;;;;;14.47;100.00;96800.56;4999888;28;20592;-63
2023/08/28 08:56:13;;;;;;;6.28;3.40;;;;;;;14.42;100.00;96809.63;4972751;28;20050;-62
2023/08/28 08:58:41;;;;;;;5.63;3.60;;;;;;;14.23;100.00;96815.81;5000097;28;20050;-63
2023/08/28 09:01:08;;;;;;;7.07;3.50;;;;;;;14.28;100.00;96813.06;5011026;28;20056;-63
2023/08/28 09:03:37;;;;;;;5.78;3.58;;;;;;;14.36;100.00;96803.41;4959906;28;20533;-63
2023/08/28 09:06:06;;;;;;;6.68;3.47;;;;;;;14.46;100.00;96799.78;4973255;28;20137;-63
2023/08/28 09:08:36;;;;;;;6.80;3.10;;;;;;;14.48;100.00;96804.94;4999602;28;20598;-63
2023/08/28 09:11:04;;;;;;;6.15;3.35;;;;;;;14.62;100.00;96805.81;4966962;28;20135;-62
2023/08/28 09:13:31;;;;;;;7.30;3.90;;;;;;;14.78;100.00;96801.00;5016654;28;20109;-62
2023/08/28 09:15:58;;;;;;;5.70;3.35;;;;;;;14.97;100.00;96804.84;4996570;28;20043;-63
2023/08/28 09:18:25;;;;;;;6.20;3.30;;;;;;;15.09;98.24;96799.75;5004003;28;20098;-62
2023/08/28 09:21:09;;;;;;;5.47;3.28;;;;;;;15.13;97.66;96810.88;4966358;28;20133;-63
2023/08/28 09:23:50;;;;;;;6.80;3.13;;;;;;;15.25;97.73;96810.44;4961881;28;20046;-63
2023/08/28 09:26:19;;;;;;;6.30;2.90;;;;;;;15.29;96.99;96808.75;5005573;28;20529;-63
2023/08/28 09:29:02;;;;;;;5.63;2.60;;;;;;;15.37;96.61;96799.88;4992329;28;20121;-63
2023/08/28 09:31:32;;;;;;;4.75;3.10;;;;;;;15.42;94.17;96802.53;4997316;28;20128;-63
2023/08/28 09:34:00;;;;;;;6.10;2.60;;;;;;;15.32;92.93;96798.06;4984052;28;20039;-63
2023/08/28 09:36:36;;;;;;;6.68;3.13;;;;;;;15.34;95.18;96795.81;4987524;28;20048;-63
2023/08/28 09:39:06;;;;;;;4.80;2.65;;;;;;;15.15;92.70;96784.94;5005765;28;20065;-63
2023/08/28 09:41:38;;;;;;;4.53;2.85;;;;;;;15.24;92.75;96778.81;4975212;28;20047;-63
2023/08/28 09:44:05;;;;;;;4.70;2.65;;;;;;;15.37;89.97;96780.78;4986268;28;20043;-63
2023/08/28 09:46:32;;;;;;;4.80;2.60;;;;;;;15.19;91.72;96775.06;4981029;28;20044;-63
2023/08/28 09:48:59;;;;;;;5.68;2.80;;;;;;;15.31;92.49;96773.78;4966886;28;20051;-63
2023/08/28 09:51:43;;;;;;;4.70;2.95;;;;;;;15.45;90.30;96755.53;4995047;28;20059;-62
2023/08/28 09:54:11;;;;;;;6.47;2.38;;;;;;;15.54;90.17;96757.59;4990659;28;20039;-62
2023/08/28 09:56:38;;;;;;;6.25;2.50;;;;;;;15.50;90.02;96751.09;4991533;28;20043;-62
2023/08/28 09:59:06;;;;;;;6.00;2.53;;;;;;;15.54;89.82;96747.50;4973846;28;20054;-62
2023/08/28 10:01:35;;;;;;;4.28;2.45;;;;;;;15.57;88.69;96737.91;5001206;28;20052;-62
2023/08/28 10:04:06;;;;;;;3.80;2.20;;;;;;;15.59;89.54;96735.69;4959807;28;20050;-63
2023/08/28 10:06:38;;;;;;;4.45;2.13;;;;;;;15.77;88.89;96735.91;4990543;28;20058;-62
2023/08/28 10:09:08;;;;;;;5.55;2.13;;;;;;;15.66;87.60;96735.28;4957931;28;20059;-63
2023/08/28 10:11:39;;;;;;;3.13;1.60;;;;;;;15.58;87.15;96739.50;5011879;28;20049;-62
2023/08/28 10:14:06;;;;;;;4.85;1.88;;;;;;;15.64;87.72;96742.97;4984352;28;20096;-63
2023/08/28 10:16:49;;;;;;;5.00;2.00;;;;;;;15.67;86.92;96729.50;5003681;28;20623;-63
2023/08/28 10:19:25;;;;;;;3.70;1.65;;;;;;;15.86;87.64;96740.34;4994607;28;20697;-62
2023/08/28 10:21:53;;;;;;;4.32;1.95;;;;;;;15.81;86.84;96732.25;4996846;28;20766;-62
2023/08/28 10:24:21;;;;;;;4.13;2.15;;;;;;;15.77;87.11;96731.25;4978666;28;20046;-63
2023/08/28 10:26:49;;;;;;;4.50;1.90;;;;;;;15.87;86.33;96741.16;4992700;28;20042;-62
2023/08/28 10:29:17;;;;;;;3.05;1.83;;;;;;;15.82;85.84;96733.88;4962479;28;20051;-62
2023/08/28 10:31:45;;;;;;;3.33;1.90;;;;;;;15.92;85.11;96737.53;4981054;28;20205;-63
2023/08/28 10:34:12;;;;;;;4.13;1.90;;;;;;;15.93;84.62;96736.44;4994092;28;20050;-62
2023/08/28 10:36:39;;;;;;;3.13;1.70;;;;;;;16.14;85.46;96739.56;4961890;28;20125;-62
2023/08/28 10:39:28;;;;;;;3.80;1.60;;;;;;;16.32;80.76;96737.03;4960737;28;20047;-63
2023/08/28 10:41:55;;;;;;;3.65;1.50;;;;;;;16.32;80.77;96737.84;5000587;28;20050;-63
2023/08/28 10:44:23;;;;;;;4.03;1.77;;;;;;;16.11;81.27;96723.81;4965056;28;20038;-62
2023/08/28 10:46:51;;;;;;;3.88;1.70;;;;;;;16.16;80.03;96734.63;4959969;28;22079;-62
2023/08/28 10:49:18;;;;;;;3.65;1.40;;;;;;;16.21;79.72;96725.50;4998444;28;20125;-63
2023/08/28 10:51:45;;;;;;;4.35;1.40;;;;;;;15.97;80.98;96713.72;4990553;28;20051;-62
2023/08/28 10:54:11;;;;;;;2.75;1.40;;;;;;;16.22;81.39;96706.09;4983612;28;20643;-62
2023/08/28 10:56:39;;;;;;;2.85;1.02;;;;;;;16.43;79.62;96705.66;4988235;28;20057;-62
2023/08/28 10:59:24;;;;;;;3.47;1.00;;;;;;;16.59;78.50;96691.66;4983666;28;20050;-62
2023/08/28 11:01:57;;;;;;;3.15;1.30;;;;;;;16.63;77.86;96690.72;5015668;28;20051;-62
2023/08/28 11:04:24;;;;;;;;;;;;;;;16.77;76.56;96692.63;4966557;28;20062;-62
2023/08/28 11:06:51;;;;;;;2.78;1.10;;;;;;;16.95;75.77;96688.06;4972545;28;19979;-63
2023/08/28 11:09:29;;;;;;;3.30;1.48;;;;;;;17.00;76.08;96687.16;5014195;28;20050;-62
2023/08/28 11:11:59;;;;;;;2.28;1.20;;;;;;;17.07;76.82;96692.22;4990150;28;20055;-62
2023/08/28 11:14:55;;;;;;;3.42;1.10;;;;;;;17.21;75.97;96692.94;5005661;28;20121;-63
2023/08/28 11:17:23;;;;;;;3.35;1.30;;;;;;;17.23;75.82;96690.72;4976225;28;20058;-61
2023/08/28 11:19:54;;;;;;;3.85;1.70;;;;;;;16.93;75.09;96697.72;4976225;28;20060;-62
2023/08/28 11:22:31;;;;;;;2.95;1.20;;;;;;;17.13;75.02;96696.44;5006388;28;20046;-62
2023/08/28 11:24:59;;;;;;;3.33;1.33;;;;;;;17.10;75.41;96697.06;4984688;28;20053;-62
2023/08/28 11:27:35;;;;;;;6.03;1.33;;;;;;;17.21;76.63;96697.63;4985375;28;20109;-62
2023/08/28 11:30:06;;;;;;;4.15;1.35;;;;;;;17.21;75.96;96698.41;5008378;28;20041;-61
2023/08/28 11:32:34;;;;;;;6.10;1.50;;;;;;;17.08;76.04;96694.66;4989879;28;20038;-61